BAW969H EDDH-EGLL
Flight info
| Callsign | BAW969H |
|---|---|
| Flight time | 1h 14m |
| Altitude | 38000 |
| Route | WSN5G/33 WSN N125 ITMIZ DCT ABNED L980 LOGAN LOGAN2H |
| Aircraft | A20N/M-SDGHIJ1LRWXY/SB1 |
Departure
| Time | 2026-04-25 18:38 |
|---|---|
| Airport | Hamburg Helmut Schmidt Airport (EDDH) |
Arrival
| Time | 2026-04-25 19:52 |
|---|---|
| Airport | London Heathrow Airport (EGLL) |
| Time | Latitude | Longitude | Altitude | Speed | Heading |
|---|---|---|---|---|---|
| 2026-04-25 18:04 | 53.63033 | 10.00349 | 50 ft | 0 kts | 122° |
| 2026-04-25 18:28 | 53.63036 | 10.00342 | 49 ft | 4 kts | 125° |
| 2026-04-25 18:29 | 53.63065 | 10.00265 | 50 ft | 4 kts | 121° |
| 2026-04-25 18:29 | 53.63076 | 10.00235 | 47 ft | 3 kts | 122° |
| 2026-04-25 18:30 | 53.63106 | 10.00193 | 47 ft | 0 kts | 176° |
| 2026-04-25 18:34 | 53.63104 | 10.00193 | 48 ft | 2 kts | 176° |
| 2026-04-25 18:34 | 53.63075 | 10.00183 | 48 ft | 7 kts | 199° |
| 2026-04-25 18:35 | 53.63011 | 10.00124 | 50 ft | 13 kts | 220° |
| 2026-04-25 18:35 | 53.62943 | 10.00045 | 49 ft | 13 kts | 218° |
| 2026-04-25 18:35 | 53.62909 | 9.99953 | 50 ft | 9 kts | 243° |
| 2026-04-25 18:35 | 53.62875 | 9.99840 | 47 ft | 12 kts | 243° |
| 2026-04-25 18:36 | 53.62882 | 9.99731 | 49 ft | 9 kts | 332° |
| 2026-04-25 18:36 | 53.62886 | 9.99727 | 49 ft | 0 kts | 332° |
| 2026-04-25 18:37 | 53.62909 | 9.99707 | 49 ft | 13 kts | 332° |
| 2026-04-25 18:37 | 53.63205 | 9.99451 | 49 ft | 83 kts | 332° |
| 2026-04-25 18:37 | 53.63891 | 9.98852 | 44 ft | 137 kts | 333° |
| 2026-04-25 18:37 | 53.64801 | 9.98140 | 453 ft | 148 kts | 329° |
| 2026-04-25 18:38 | 53.65707 | 9.97368 | 1225 ft | 139 kts | 328° |
| 2026-04-25 18:38 | 53.66532 | 9.96644 | 2091 ft | 133 kts | 328° |
| 2026-04-25 18:38 | 53.67397 | 9.95877 | 2579 ft | 149 kts | 328° |
| 2026-04-25 18:38 | 53.68370 | 9.95017 | 3107 ft | 166 kts | 330° |
| 2026-04-25 18:39 | 53.69449 | 9.94076 | 3703 ft | 183 kts | 330° |
| 2026-04-25 18:39 | 53.70647 | 9.93042 | 4315 ft | 204 kts | 331° |
| 2026-04-25 18:39 | 53.71976 | 9.91883 | 4827 ft | 224 kts | 331° |
| 2026-04-25 18:39 | 53.73374 | 9.90662 | 5256 ft | 228 kts | 331° |
| 2026-04-25 18:40 | 53.74789 | 9.89441 | 6264 ft | 227 kts | 330° |
| 2026-04-25 18:40 | 53.76205 | 9.88251 | 7336 ft | 228 kts | 331° |
| 2026-04-25 18:40 | 53.77642 | 9.87076 | 8336 ft | 230 kts | 331° |
| 2026-04-25 18:40 | 53.79094 | 9.85915 | 9301 ft | 234 kts | 331° |
| 2026-04-25 18:41 | 53.80511 | 9.84566 | 9802 ft | 233 kts | 317° |
| 2026-04-25 18:41 | 53.81402 | 9.82297 | 10009 ft | 238 kts | 291° |
| 2026-04-25 18:41 | 53.81494 | 9.79490 | 10075 ft | 254 kts | 266° |
| 2026-04-25 18:41 | 53.80695 | 9.76674 | 10076 ft | 276 kts | 240° |
| 2026-04-25 18:42 | 53.79197 | 9.74446 | 10105 ft | 299 kts | 231° |
| 2026-04-25 18:42 | 53.78709 | 9.73654 | 10189 ft | 300 kts | 239° |
| 2026-04-25 18:42 | 53.76588 | 9.68734 | 10946 ft | 321 kts | 245° |
| 2026-04-25 18:42 | 53.75322 | 9.65589 | 11787 ft | 326 kts | 245° |
| 2026-04-25 18:43 | 53.74033 | 9.62407 | 12614 ft | 331 kts | 245° |
| 2026-04-25 18:43 | 53.72713 | 9.59182 | 13444 ft | 336 kts | 245° |
| 2026-04-25 18:43 | 53.71367 | 9.55922 | 14215 ft | 341 kts | 244° |
| 2026-04-25 18:43 | 53.69996 | 9.52616 | 14942 ft | 345 kts | 244° |
| 2026-04-25 18:44 | 53.68607 | 9.49278 | 15679 ft | 350 kts | 244° |
| 2026-04-25 18:44 | 53.67201 | 9.45901 | 16380 ft | 354 kts | 244° |
| 2026-04-25 18:44 | 53.65772 | 9.42476 | 17090 ft | 359 kts | 244° |
| 2026-04-25 18:44 | 53.64327 | 9.39015 | 17794 ft | 364 kts | 244° |
| 2026-04-25 18:45 | 53.62864 | 9.35513 | 18456 ft | 368 kts | 244° |
| 2026-04-25 18:45 | 53.61381 | 9.31971 | 19070 ft | 372 kts | 244° |
| 2026-04-25 18:45 | 53.59883 | 9.28399 | 19692 ft | 375 kts | 244° |
| 2026-04-25 18:45 | 53.58370 | 9.24793 | 20298 ft | 379 kts | 244° |
| 2026-04-25 18:46 | 53.56844 | 9.21161 | 20915 ft | 382 kts | 244° |
| 2026-04-25 18:46 | 53.55302 | 9.17496 | 21502 ft | 386 kts | 243° |
| 2026-04-25 18:46 | 53.53747 | 9.13806 | 22092 ft | 389 kts | 243° |
| 2026-04-25 18:46 | 53.52172 | 9.10073 | 22676 ft | 393 kts | 243° |
| 2026-04-25 18:47 | 53.50578 | 9.06305 | 23258 ft | 397 kts | 243° |
| 2026-04-25 18:47 | 53.48972 | 9.02511 | 23793 ft | 401 kts | 243° |
| 2026-04-25 18:47 | 53.47348 | 8.98683 | 24022 ft | 403 kts | 242° |
| 2026-04-25 18:47 | 53.45717 | 8.94843 | 24248 ft | 406 kts | 242° |
| 2026-04-25 18:48 | 53.44075 | 8.90986 | 24823 ft | 406 kts | 242° |
| 2026-04-25 18:48 | 53.42426 | 8.87119 | 25323 ft | 408 kts | 242° |
| 2026-04-25 18:48 | 53.40767 | 8.83229 | 25794 ft | 411 kts | 242° |
| 2026-04-25 18:48 | 53.39096 | 8.79319 | 26255 ft | 414 kts | 242° |
| 2026-04-25 18:49 | 53.37413 | 8.75385 | 26709 ft | 417 kts | 242° |
| 2026-04-25 18:49 | 53.35718 | 8.71432 | 27157 ft | 419 kts | 241° |
| 2026-04-25 18:49 | 53.34009 | 8.67453 | 27583 ft | 422 kts | 241° |
| 2026-04-25 18:49 | 53.32290 | 8.63455 | 28004 ft | 425 kts | 241° |
| 2026-04-25 18:50 | 53.30581 | 8.59487 | 28404 ft | 428 kts | 241° |
| 2026-04-25 18:50 | 53.28836 | 8.55444 | 28790 ft | 430 kts | 241° |
| 2026-04-25 18:50 | 53.27229 | 8.51260 | 29158 ft | 427 kts | 247° |
| 2026-04-25 18:50 | 53.25938 | 8.46816 | 29502 ft | 424 kts | 254° |
| 2026-04-25 18:51 | 53.24963 | 8.42181 | 29862 ft | 423 kts | 258° |
| 2026-04-25 18:51 | 53.24670 | 8.40588 | 29971 ft | 424 kts | 258° |
| 2026-04-25 18:51 | 53.23213 | 8.32748 | 30511 ft | 428 kts | 258° |
| 2026-04-25 18:51 | 53.22318 | 8.27991 | 30779 ft | 431 kts | 258° |
| 2026-04-25 18:52 | 53.21411 | 8.23201 | 31080 ft | 434 kts | 258° |
| 2026-04-25 18:52 | 53.20497 | 8.18397 | 31396 ft | 436 kts | 258° |
| 2026-04-25 18:52 | 53.19574 | 8.13568 | 31767 ft | 436 kts | 257° |
| 2026-04-25 18:52 | 53.18654 | 8.08748 | 32145 ft | 436 kts | 258° |
| 2026-04-25 18:53 | 53.17731 | 8.03927 | 32503 ft | 438 kts | 256° |
| 2026-04-25 18:53 | 53.16629 | 7.99185 | 32863 ft | 440 kts | 252° |
| 2026-04-25 18:53 | 53.15424 | 7.94485 | 33227 ft | 441 kts | 252° |
| 2026-04-25 18:53 | 53.14203 | 7.89807 | 33548 ft | 441 kts | 247° |
| 2026-04-25 18:54 | 53.11789 | 7.80426 | 34190 ft | 440 kts | 253° |
| 2026-04-25 18:54 | 53.10655 | 7.75694 | 34494 ft | 440 kts | 253° |
| 2026-04-25 18:54 | 53.09904 | 7.72576 | 34696 ft | 439 kts | 253° |
| 2026-04-25 18:55 | 53.08755 | 7.67867 | 35010 ft | 438 kts | 252° |
| 2026-04-25 18:55 | 53.07599 | 7.63186 | 35305 ft | 438 kts | 252° |
| 2026-04-25 18:55 | 53.06435 | 7.58507 | 35591 ft | 437 kts | 252° |
| 2026-04-25 18:55 | 53.05269 | 7.53847 | 35881 ft | 436 kts | 252° |
| 2026-04-25 18:56 | 53.04104 | 7.49199 | 36144 ft | 436 kts | 252° |
| 2026-04-25 18:56 | 53.02937 | 7.44558 | 36413 ft | 435 kts | 252° |
| 2026-04-25 18:56 | 53.01771 | 7.39923 | 36680 ft | 434 kts | 252° |
| 2026-04-25 18:56 | 53.00605 | 7.35302 | 36926 ft | 434 kts | 252° |
| 2026-04-25 18:57 | 52.99437 | 7.30683 | 37176 ft | 433 kts | 252° |
| 2026-04-25 18:57 | 52.98274 | 7.26090 | 37420 ft | 432 kts | 252° |
| 2026-04-25 18:57 | 52.97109 | 7.21496 | 37672 ft | 431 kts | 252° |
| 2026-04-25 18:57 | 52.96321 | 7.18397 | 37826 ft | 431 kts | 251° |
| 2026-04-25 18:58 | 52.94781 | 7.12349 | 38124 ft | 430 kts | 251° |
| 2026-04-25 18:58 | 52.91293 | 6.98710 | 38174 ft | 427 kts | 251° |
| 2026-04-25 18:59 | 52.86637 | 6.80625 | 38186 ft | 426 kts | 251° |
| 2026-04-25 19:00 | 52.83136 | 6.67121 | 38173 ft | 425 kts | 251° |
| 2026-04-25 19:01 | 52.79630 | 6.53680 | 38187 ft | 423 kts | 251° |
| 2026-04-25 19:01 | 52.77292 | 6.44758 | 38186 ft | 423 kts | 250° |
| 2026-04-25 19:02 | 52.73779 | 6.31420 | 38172 ft | 422 kts | 250° |
| 2026-04-25 19:03 | 52.70653 | 6.19613 | 38170 ft | 422 kts | 250° |
| 2026-04-25 19:03 | 52.67917 | 6.09330 | 38176 ft | 422 kts | 250° |
| 2026-04-25 19:04 | 52.64368 | 5.96059 | 38181 ft | 422 kts | 250° |
| 2026-04-25 19:05 | 52.59592 | 5.78321 | 38211 ft | 425 kts | 249° |
| 2026-04-25 19:06 | 52.57187 | 5.69441 | 38206 ft | 425 kts | 249° |
| 2026-04-25 19:06 | 52.53568 | 5.56140 | 38213 ft | 425 kts | 249° |
| 2026-04-25 19:07 | 52.49926 | 5.42833 | 38218 ft | 426 kts | 249° |
| 2026-04-25 19:08 | 52.46300 | 5.29658 | 38218 ft | 427 kts | 248° |
| 2026-04-25 19:09 | 52.41809 | 5.13447 | 38212 ft | 426 kts | 248° |
| 2026-04-25 19:10 | 52.37699 | 4.98706 | 38213 ft | 426 kts | 248° |
| 2026-04-25 19:10 | 52.35228 | 4.89893 | 38212 ft | 426 kts | 248° |
| 2026-04-25 19:11 | 52.32747 | 4.81071 | 38212 ft | 427 kts | 247° |
| 2026-04-25 19:11 | 52.30253 | 4.72239 | 38216 ft | 428 kts | 247° |
| 2026-04-25 19:12 | 52.27764 | 4.63458 | 38221 ft | 429 kts | 247° |
| 2026-04-25 19:12 | 52.25254 | 4.54640 | 38212 ft | 427 kts | 247° |
| 2026-04-25 19:13 | 52.22850 | 4.46222 | 38219 ft | 427 kts | 247° |
| 2026-04-25 19:13 | 52.20333 | 4.37439 | 38217 ft | 427 kts | 246° |
| 2026-04-25 19:14 | 52.17811 | 4.28670 | 38224 ft | 428 kts | 246° |
| 2026-04-25 19:14 | 52.15282 | 4.19912 | 38222 ft | 427 kts | 246° |
| 2026-04-25 19:15 | 52.12748 | 4.11169 | 38223 ft | 427 kts | 246° |
| 2026-04-25 19:15 | 52.10210 | 4.02450 | 38227 ft | 426 kts | 246° |
| 2026-04-25 19:16 | 52.07667 | 3.93738 | 38228 ft | 426 kts | 246° |
| 2026-04-25 19:16 | 52.05121 | 3.85047 | 38232 ft | 426 kts | 246° |
| 2026-04-25 19:17 | 52.02821 | 3.77225 | 38233 ft | 426 kts | 246° |
| 2026-04-25 19:17 | 52.00279 | 3.68608 | 38232 ft | 426 kts | 245° |
| 2026-04-25 19:18 | 51.97841 | 3.60374 | 38235 ft | 426 kts | 245° |
| 2026-04-25 19:18 | 51.95266 | 3.51710 | 38235 ft | 427 kts | 245° |
| 2026-04-25 19:19 | 51.92680 | 3.43038 | 38233 ft | 427 kts | 245° |
| 2026-04-25 19:19 | 51.90092 | 3.34386 | 38240 ft | 428 kts | 245° |
| 2026-04-25 19:20 | 51.87494 | 3.25721 | 38239 ft | 428 kts | 245° |
| 2026-04-25 19:20 | 51.85300 | 3.16791 | 38235 ft | 427 kts | 256° |
| 2026-04-25 19:21 | 51.84261 | 3.07370 | 38232 ft | 426 kts | 265° |
| 2026-04-25 19:21 | 51.83352 | 2.93055 | 38236 ft | 427 kts | 264° |
| 2026-04-25 19:22 | 51.82721 | 2.83504 | 38241 ft | 428 kts | 264° |
| 2026-04-25 19:23 | 51.81754 | 2.69150 | 38240 ft | 428 kts | 264° |
| 2026-04-25 19:23 | 51.80767 | 2.54782 | 38248 ft | 429 kts | 264° |
| 2026-04-25 19:24 | 51.80102 | 2.45240 | 37926 ft | 425 kts | 264° |
| 2026-04-25 19:24 | 51.79433 | 2.35755 | 36623 ft | 425 kts | 264° |
| 2026-04-25 19:25 | 51.78754 | 2.26240 | 35164 ft | 428 kts | 264° |
| 2026-04-25 19:25 | 51.78411 | 2.21467 | 34451 ft | 429 kts | 264° |
| 2026-04-25 19:25 | 51.78103 | 2.16656 | 33684 ft | 430 kts | 265° |
| 2026-04-25 19:26 | 51.77831 | 2.11870 | 33328 ft | 428 kts | 265° |
| 2026-04-25 19:26 | 51.77559 | 2.07028 | 33226 ft | 438 kts | 265° |
| 2026-04-25 19:26 | 51.76989 | 1.97239 | 33235 ft | 436 kts | 265° |
| 2026-04-25 19:27 | 51.76696 | 1.92375 | 32949 ft | 434 kts | 265° |
| 2026-04-25 19:27 | 51.76598 | 1.90750 | 32766 ft | 433 kts | 265° |
| 2026-04-25 19:27 | 51.76106 | 1.82691 | 31523 ft | 435 kts | 265° |
| 2026-04-25 19:27 | 51.75805 | 1.77822 | 30684 ft | 438 kts | 264° |
| 2026-04-25 19:28 | 51.75502 | 1.72933 | 29948 ft | 436 kts | 264° |
| 2026-04-25 19:28 | 51.75199 | 1.68097 | 29329 ft | 431 kts | 264° |
| 2026-04-25 19:28 | 51.74897 | 1.63312 | 28678 ft | 426 kts | 264° |
| 2026-04-25 19:28 | 51.74596 | 1.58574 | 28056 ft | 422 kts | 264° |
| 2026-04-25 19:29 | 51.74298 | 1.53889 | 27430 ft | 418 kts | 264° |
| 2026-04-25 19:29 | 51.74001 | 1.49250 | 26827 ft | 414 kts | 264° |
| 2026-04-25 19:29 | 51.73704 | 1.44649 | 26235 ft | 410 kts | 264° |
| 2026-04-25 19:29 | 51.73409 | 1.40095 | 25658 ft | 406 kts | 264° |
| 2026-04-25 19:30 | 51.73115 | 1.35602 | 25344 ft | 399 kts | 264° |
| 2026-04-25 19:30 | 51.72822 | 1.31140 | 25246 ft | 403 kts | 265° |
| 2026-04-25 19:30 | 51.72529 | 1.26695 | 25236 ft | 405 kts | 264° |
| 2026-04-25 19:30 | 51.72229 | 1.22181 | 25236 ft | 404 kts | 264° |
| 2026-04-25 19:31 | 51.71925 | 1.17625 | 25230 ft | 404 kts | 264° |
| 2026-04-25 19:31 | 51.71627 | 1.13190 | 25200 ft | 402 kts | 264° |
| 2026-04-25 19:31 | 51.71324 | 1.08714 | 24846 ft | 402 kts | 265° |
| 2026-04-25 19:31 | 51.71018 | 1.04218 | 24145 ft | 406 kts | 265° |
| 2026-04-25 19:32 | 51.70708 | 0.99693 | 23447 ft | 405 kts | 265° |
| 2026-04-25 19:32 | 51.70398 | 0.95193 | 22788 ft | 401 kts | 265° |
| 2026-04-25 19:32 | 51.70091 | 0.90747 | 22129 ft | 397 kts | 265° |
| 2026-04-25 19:32 | 51.69987 | 0.89254 | 21909 ft | 396 kts | 265° |
| 2026-04-25 19:33 | 51.69478 | 0.81965 | 20840 ft | 391 kts | 265° |
| 2026-04-25 19:33 | 51.69174 | 0.77637 | 20217 ft | 388 kts | 265° |
| 2026-04-25 19:33 | 51.68869 | 0.73324 | 19598 ft | 385 kts | 265° |
| 2026-04-25 19:33 | 51.68566 | 0.69052 | 18991 ft | 383 kts | 264° |
| 2026-04-25 19:34 | 51.68264 | 0.64815 | 18380 ft | 380 kts | 264° |
| 2026-04-25 19:34 | 51.67961 | 0.60597 | 17723 ft | 377 kts | 264° |
| 2026-04-25 19:34 | 51.67659 | 0.56423 | 17083 ft | 374 kts | 264° |
| 2026-04-25 19:34 | 51.67358 | 0.52275 | 16483 ft | 371 kts | 264° |
| 2026-04-25 19:35 | 51.67059 | 0.48178 | 16056 ft | 363 kts | 264° |
| 2026-04-25 19:35 | 51.66768 | 0.44220 | 15897 ft | 348 kts | 264° |
| 2026-04-25 19:35 | 51.66489 | 0.40425 | 15764 ft | 334 kts | 264° |
| 2026-04-25 19:35 | 51.66220 | 0.36800 | 15602 ft | 317 kts | 264° |
| 2026-04-25 19:36 | 51.65964 | 0.33350 | 15355 ft | 307 kts | 264° |
| 2026-04-25 19:36 | 51.65712 | 0.29957 | 14970 ft | 304 kts | 264° |
| 2026-04-25 19:36 | 51.65461 | 0.26582 | 14563 ft | 303 kts | 264° |
| 2026-04-25 19:36 | 51.65209 | 0.23222 | 14052 ft | 301 kts | 264° |
| 2026-04-25 19:37 | 51.64959 | 0.19895 | 13419 ft | 298 kts | 264° |
| 2026-04-25 19:37 | 51.64710 | 0.16593 | 12795 ft | 296 kts | 264° |
| 2026-04-25 19:37 | 51.64480 | 0.13312 | 12181 ft | 294 kts | 265° |
| 2026-04-25 19:37 | 51.64295 | 0.10047 | 11584 ft | 292 kts | 266° |
| 2026-04-25 19:38 | 51.64118 | 0.06805 | 11008 ft | 289 kts | 266° |
| 2026-04-25 19:38 | 51.63943 | 0.03594 | 10434 ft | 288 kts | 266° |
| 2026-04-25 19:38 | 51.63771 | 0.00397 | 9858 ft | 285 kts | 266° |
| 2026-04-25 19:38 | 51.63598 | -0.02770 | 9251 ft | 283 kts | 266° |
| 2026-04-25 19:39 | 51.63427 | -0.05853 | 9002 ft | 268 kts | 266° |
| 2026-04-25 19:39 | 51.63264 | -0.08746 | 8870 ft | 252 kts | 266° |
| 2026-04-25 19:39 | 51.63105 | -0.11524 | 8486 ft | 246 kts | 266° |
| 2026-04-25 19:39 | 51.62947 | -0.14242 | 8299 ft | 248 kts | 266° |
| 2026-04-25 19:40 | 51.62841 | -0.16085 | 8266 ft | 249 kts | 266° |
| 2026-04-25 19:40 | 51.62684 | -0.18841 | 8264 ft | 247 kts | 266° |
| 2026-04-25 19:40 | 51.62527 | -0.21608 | 8274 ft | 249 kts | 266° |
| 2026-04-25 19:40 | 51.62371 | -0.24384 | 8230 ft | 247 kts | 266° |
| 2026-04-25 19:41 | 51.62217 | -0.27121 | 7880 ft | 244 kts | 266° |
| 2026-04-25 19:41 | 51.62064 | -0.29836 | 7457 ft | 242 kts | 266° |
| 2026-04-25 19:41 | 51.61912 | -0.32548 | 7248 ft | 245 kts | 266° |
| 2026-04-25 19:41 | 51.61811 | -0.34360 | 7207 ft | 245 kts | 266° |
| 2026-04-25 19:42 | 51.61607 | -0.38002 | 7212 ft | 245 kts | 266° |
| 2026-04-25 19:42 | 51.61455 | -0.40739 | 7211 ft | 247 kts | 266° |
| 2026-04-25 19:42 | 51.61303 | -0.43470 | 7204 ft | 244 kts | 266° |
| 2026-04-25 19:42 | 51.61150 | -0.46194 | 7216 ft | 244 kts | 265° |
| 2026-04-25 19:43 | 51.60998 | -0.48915 | 7207 ft | 244 kts | 266° |
| 2026-04-25 19:43 | 51.60846 | -0.51632 | 7161 ft | 242 kts | 265° |
| 2026-04-25 19:43 | 51.60696 | -0.54329 | 6910 ft | 242 kts | 265° |
| 2026-04-25 19:43 | 51.60545 | -0.57023 | 6602 ft | 242 kts | 265° |
| 2026-04-25 19:44 | 51.60395 | -0.59718 | 6270 ft | 241 kts | 265° |
| 2026-04-25 19:44 | 51.60249 | -0.62400 | 5954 ft | 241 kts | 265° |
| 2026-04-25 19:44 | 51.60106 | -0.65086 | 5632 ft | 240 kts | 265° |
| 2026-04-25 19:44 | 51.59968 | -0.67726 | 5329 ft | 240 kts | 265° |
| 2026-04-25 19:45 | 51.59714 | -0.70363 | 5006 ft | 239 kts | 249° |
| 2026-04-25 19:45 | 51.58812 | -0.72630 | 4672 ft | 238 kts | 231° |
| 2026-04-25 19:45 | 51.57767 | -0.74697 | 4382 ft | 237 kts | 231° |
| 2026-04-25 19:45 | 51.56743 | -0.76720 | 4120 ft | 235 kts | 231° |
| 2026-04-25 19:46 | 51.55554 | -0.78482 | 3999 ft | 228 kts | 206° |
| 2026-04-25 19:46 | 51.54103 | -0.79013 | 3996 ft | 210 kts | 181° |
| 2026-04-25 19:46 | 51.52706 | -0.79078 | 4002 ft | 191 kts | 180° |
| 2026-04-25 19:46 | 51.51378 | -0.79127 | 3997 ft | 194 kts | 180° |
| 2026-04-25 19:47 | 51.50039 | -0.79176 | 3994 ft | 192 kts | 180° |
| 2026-04-25 19:47 | 51.48761 | -0.78736 | 3998 ft | 191 kts | 148° |
| 2026-04-25 19:47 | 51.47913 | -0.77144 | 3999 ft | 190 kts | 112° |
| 2026-04-25 19:47 | 51.47608 | -0.75101 | 3993 ft | 189 kts | 95° |
| 2026-04-25 19:48 | 51.47561 | -0.73034 | 3917 ft | 181 kts | 89° |
| 2026-04-25 19:48 | 51.47586 | -0.71095 | 3782 ft | 168 kts | 89° |
| 2026-04-25 19:48 | 51.47597 | -0.69236 | 3496 ft | 165 kts | 89° |
| 2026-04-25 19:48 | 51.47609 | -0.67421 | 3134 ft | 160 kts | 89° |
| 2026-04-25 19:49 | 51.47621 | -0.65602 | 2932 ft | 167 kts | 89° |
| 2026-04-25 19:49 | 51.47629 | -0.64348 | 2680 ft | 165 kts | 89° |
| 2026-04-25 19:49 | 51.47644 | -0.61909 | 2070 ft | 162 kts | 89° |
| 2026-04-25 19:49 | 51.47656 | -0.60100 | 1703 ft | 163 kts | 89° |
| 2026-04-25 19:50 | 51.47680 | -0.56497 | 1111 ft | 162 kts | 89° |
| 2026-04-25 19:50 | 51.47692 | -0.54701 | 883 ft | 161 kts | 89° |
| 2026-04-25 19:50 | 51.47703 | -0.52913 | 661 ft | 159 kts | 89° |
| 2026-04-25 19:51 | 51.47727 | -0.51198 | 415 ft | 149 kts | 87° |
| 2026-04-25 19:51 | 51.47743 | -0.49610 | 246 ft | 138 kts | 90° |
| 2026-04-25 19:51 | 51.47750 | -0.48029 | 103 ft | 141 kts | 87° |
| 2026-04-25 19:51 | 51.47759 | -0.46575 | 93 ft | 109 kts | 90° |
| 2026-04-25 19:52 | 51.47757 | -0.45693 | 84 ft | 50 kts | 89° |
| 2026-04-25 19:52 | 51.47706 | -0.45477 | 86 ft | 19 kts | 161° |
| 2026-04-25 19:52 | 51.47600 | -0.45508 | 85 ft | 15 kts | 239° |
| 2026-04-25 19:52 | 51.47597 | -0.45573 | 87 ft | 0 kts | 271° |
| 2026-04-25 19:53 | 51.47597 | -0.45588 | 87 ft | 5 kts | 270° |
| 2026-04-25 19:54 | 51.47597 | -0.45685 | 85 ft | 11 kts | 268° |
| 2026-04-25 19:54 | 51.47596 | -0.45833 | 87 ft | 15 kts | 271° |
| 2026-04-25 19:54 | 51.47594 | -0.46017 | 87 ft | 18 kts | 266° |
| 2026-04-25 19:54 | 51.47592 | -0.46155 | 86 ft | 19 kts | 270° |
| 2026-04-25 19:55 | 51.47594 | -0.46454 | 90 ft | 20 kts | 273° |
| 2026-04-25 19:55 | 51.47596 | -0.46687 | 92 ft | 22 kts | 269° |
| 2026-04-25 19:55 | 51.47581 | -0.46920 | 91 ft | 22 kts | 268° |
| 2026-04-25 19:55 | 51.47582 | -0.47166 | 88 ft | 22 kts | 269° |
| 2026-04-25 19:56 | 51.47582 | -0.47421 | 87 ft | 23 kts | 270° |
| 2026-04-25 19:56 | 51.47582 | -0.47695 | 87 ft | 26 kts | 270° |
| 2026-04-25 19:56 | 51.47585 | -0.47989 | 89 ft | 26 kts | 266° |
| 2026-04-25 19:56 | 51.47580 | -0.48200 | 89 ft | 18 kts | 269° |
| 2026-04-25 19:57 | 51.47578 | -0.48394 | 89 ft | 13 kts | 270° |
| 2026-04-25 19:57 | 51.47509 | -0.48478 | 85 ft | 13 kts | 180° |
| 2026-04-25 19:57 | 51.47411 | -0.48477 | 84 ft | 16 kts | 180° |
| 2026-04-25 19:57 | 51.47292 | -0.48476 | 84 ft | 18 kts | 179° |
| 2026-04-25 19:58 | 51.47176 | -0.48477 | 84 ft | 15 kts | 181° |
| 2026-04-25 19:58 | 51.47114 | -0.48479 | 84 ft | 0 kts | 181° |
| 2026-04-25 19:58 | 51.47107 | -0.48479 | 84 ft | 1 kts | 181° |
| 2026-04-25 19:58 | 51.47089 | -0.48493 | 88 ft | 4 kts | 220° |
| 2026-04-25 19:59 | 51.47087 | -0.48534 | 85 ft | 4 kts | 268° |
| 2026-04-25 19:59 | 51.47088 | -0.48566 | 84 ft | 1 kts | 272° |
| 2026-04-25 19:59 | 51.47088 | -0.48577 | 84 ft | 1 kts | 272° |
| 2026-04-25 19:59 | 51.47088 | -0.48578 | 84 ft | 0 kts | 272° |